createdAt,value
2024-01-24T00:01:37.402Z,11.7
2024-01-24T00:11:37.576Z,11.9
2024-01-24T00:21:37.757Z,12
2024-01-24T00:31:37.988Z,12.1
2024-01-24T00:41:38.211Z,12.2
2024-01-24T00:51:38.358Z,12.3
2024-01-24T01:01:38.564Z,12.5
2024-01-24T01:11:38.733Z,12.7
2024-01-24T01:21:39.026Z,12.8
2024-01-24T01:31:39.158Z,12.9
2024-01-24T01:41:39.307Z,12.9
2024-01-24T01:51:39.549Z,13
2024-01-24T02:01:39.789Z,13
2024-01-24T02:11:39.913Z,12.9
2024-01-24T02:21:40.093Z,13
2024-01-24T02:31:40.350Z,13
2024-01-24T02:41:40.484Z,13.3
2024-01-24T02:51:40.686Z,13.4
2024-01-24T03:01:40.858Z,13.5
2024-01-24T03:11:41.066Z,13.6
2024-01-24T03:21:41.281Z,13.6
2024-01-24T03:31:41.450Z,13.4
2024-01-24T03:41:41.654Z,13
2024-01-24T03:51:41.852Z,12.9
2024-01-24T04:11:42.222Z,12.8
2024-01-24T04:21:42.505Z,13.1
2024-01-24T04:31:42.617Z,13.3
2024-01-24T04:41:42.811Z,13.1
2024-01-24T04:51:43.029Z,13.2
2024-01-24T05:01:43.267Z,13.2
2024-01-24T05:11:43.513Z,13.1
2024-01-24T05:21:43.655Z,13.1
2024-01-24T05:31:43.749Z,13.1
2024-01-24T05:41:43.959Z,13.1
2024-01-24T05:51:44.180Z,13.1
2024-01-24T06:01:44.615Z,13.2
2024-01-24T06:31:44.965Z,12.8
2024-01-24T06:41:45.139Z,12.7
2024-01-24T06:51:45.334Z,12.6
2024-01-24T07:01:45.568Z,12.7
2024-01-24T07:11:45.712Z,12.5
2024-01-24T07:21:45.920Z,12.4
2024-01-24T07:31:46.113Z,12.3
2024-01-24T07:41:46.289Z,12.2
2024-01-24T07:51:46.522Z,12.3
2024-01-24T08:01:46.692Z,12.1
2024-01-24T08:11:46.851Z,12
2024-01-24T08:21:47.105Z,11.9
2024-01-24T08:31:47.327Z,11.9
2024-01-24T08:41:47.504Z,11.8
2024-01-24T08:51:47.669Z,11.7
2024-01-24T09:01:47.880Z,11.7
2024-01-24T09:21:48.278Z,11.7
2024-01-24T09:31:48.407Z,11.7
2024-01-24T09:41:48.616Z,11.7
2024-01-24T09:51:48.889Z,11.7
2024-01-24T10:01:49.034Z,11.6
2024-01-24T10:11:49.216Z,11.6
2024-01-24T10:31:49.626Z,11.6
2024-01-24T10:41:49.774Z,11.7
2024-01-24T10:51:50.061Z,11.7
2024-01-24T11:01:50.197Z,11.8
2024-01-24T11:11:50.368Z,11.7
2024-01-24T11:21:50.572Z,11.7
2024-01-24T11:41:50.926Z,11.6
2024-01-24T11:51:51.176Z,11.6
2024-01-24T12:01:51.464Z,11.6
2024-01-24T12:11:51.519Z,11.6
2024-01-24T12:21:51.756Z,11.5
2024-01-24T12:31:51.915Z,11.6
2024-01-24T12:41:52.105Z,11.6
2024-01-24T12:51:52.322Z,11.5
2024-01-24T13:01:52.559Z,11.5
2024-01-24T13:31:53.062Z,11.3
2024-01-24T13:41:53.285Z,11.3
2024-01-24T14:01:54.303Z,11.2
2024-01-24T14:11:53.858Z,11.1
2024-01-24T14:41:54.444Z,11
2024-01-24T14:51:54.715Z,10.9
2024-01-24T15:01:54.931Z,10.9
2024-01-24T15:11:55.057Z,10.7
2024-01-24T15:21:55.506Z,10.7
2024-01-24T15:31:55.403Z,10.7
2024-01-24T15:41:55.629Z,10.6
2024-01-24T15:51:55.848Z,10.5
2024-01-24T16:11:56.173Z,10.4
2024-01-24T16:21:56.423Z,10.4
2024-01-24T16:31:56.611Z,10.4
2024-01-24T16:41:56.823Z,10.3
2024-01-24T16:51:56.989Z,10.2
2024-01-24T17:01:57.168Z,10.2
2024-01-24T17:11:57.360Z,10.2
2024-01-24T17:21:57.657Z,10.1
2024-01-24T17:31:57.777Z,10.1
2024-01-24T17:41:57.951Z,10
2024-01-24T17:51:58.243Z,10
2024-01-24T18:01:58.343Z,10
2024-01-24T18:11:58.551Z,9.9
2024-01-24T18:21:58.763Z,9.9
2024-01-24T18:31:58.914Z,9.9
2024-01-24T18:41:59.103Z,9.9
2024-01-24T18:51:59.338Z,10
2024-01-24T19:01:59.658Z,10
2024-01-24T19:11:59.710Z,10
2024-01-24T19:21:59.958Z,9.9
2024-01-24T19:32:00.133Z,9.8
2024-01-24T19:52:00.527Z,9.7
2024-01-24T20:02:00.682Z,9.6
2024-01-24T20:12:00.872Z,9.5
2024-01-24T20:22:01.101Z,9.6
2024-01-24T20:32:01.266Z,9.6
2024-01-24T20:42:03.082Z,9.6
2024-01-24T21:02:01.900Z,9.6
2024-01-24T21:12:02.037Z,9.5
2024-01-24T21:22:02.351Z,9.3
2024-01-24T21:32:02.430Z,9.3
2024-01-24T21:42:02.619Z,9.3
2024-01-24T21:52:02.854Z,9.2
2024-01-24T22:02:03.085Z,9.2
2024-01-24T22:12:03.225Z,9.1
2024-01-24T22:22:03.452Z,9
2024-01-24T22:32:03.613Z,9
2024-01-24T22:42:03.821Z,9
2024-01-24T22:52:03.993Z,8.9
2024-01-24T23:02:04.464Z,8.9
2024-01-24T23:12:04.393Z,8.7
2024-01-24T23:22:04.676Z,8.6
2024-01-24T23:32:04.782Z,8.6
2024-01-24T23:42:05.015Z,8.7
2024-01-24T23:52:05.301Z,8.6
